Time;durP1;ratioP1;P1;durP2;ratioP2;P2;SDS_P1;SDS_P2;PMS_P1;PMS_P2;Temp;Humidity;BMP_temperature;BMP_pressure;BME280_temperature;BME280_humidity;BME280_pressure;Samples;Min_cycle;Max_cycle;Signal;HPM_P1;HPM_P2
2023/04/06 00:00:54;;;;;;;15.20;9.90;;;;;;;-1.12;64.99;96921.93;109603;1269;22511;-81
2023/04/06 00:03:25;;;;;;;17.60;10.70;;;;;;;-1.15;64.80;96925.91;109511;1270;25534;-81
2023/04/06 00:05:56;;;;;;;15.20;10.30;;;;;;;-1.19;64.95;96921.75;109559;1269;22522;-81
2023/04/06 00:08:28;;;;;;;15.10;10.40;;;;;;;-1.24;65.12;96918.23;109608;1269;32477;-81
2023/04/06 00:10:59;;;;;;;17.10;10.50;;;;;;;-1.30;65.04;96918.75;109564;1264;26444;-81
2023/04/06 00:13:30;;;;;;;16.60;10.40;;;;;;;-1.35;65.23;96918.43;109530;1270;24209;-81
2023/04/06 00:16:01;;;;;;;14.50;10.30;;;;;;;-1.40;65.12;96920.80;109442;1266;22669;-81
2023/04/06 00:18:32;;;;;;;14.90;10.00;;;;;;;-1.45;65.05;96922.55;109451;1270;45184;-81
2023/04/06 00:21:04;;;;;;;18.50;10.50;;;;;;;-1.49;65.40;96926.09;109508;1269;22578;-81
2023/04/06 00:23:35;;;;;;;14.90;10.20;;;;;;;-1.51;65.42;96922.21;109539;1270;22529;-80
2023/04/06 00:26:06;;;;;;;16.00;10.40;;;;;;;-1.56;65.27;96919.39;109463;1269;23011;-80
2023/04/06 00:28:37;;;;;;;16.70;10.20;;;;;;;-1.61;65.49;96916.56;109239;1270;64725;-80
2023/04/06 00:31:08;;;;;;;15.50;9.90;;;;;;;-1.66;65.37;96908.19;109525;1270;22515;-81
2023/04/06 00:33:40;;;;;;;14.70;10.20;;;;;;;-1.71;65.35;96906.08;109476;1267;25516;-80
2023/04/06 00:36:11;;;;;;;18.10;10.80;;;;;;;-1.75;65.31;96905.15;109531;1267;24327;-80
2023/04/06 00:38:42;;;;;;;13.30;8.80;;;;;;;-1.78;65.54;96901.78;109463;1270;35926;-80
2023/04/06 00:41:13;;;;;;;15.10;9.70;;;;;;;-1.83;65.40;96895.85;109477;1270;22660;-80
2023/04/06 00:43:44;;;;;;;14.10;10.00;;;;;;;-1.86;65.52;96897.48;109484;1267;22521;-80
2023/04/06 00:46:15;;;;;;;14.50;9.90;;;;;;;-1.89;65.35;96892.16;109490;1270;22549;-80
2023/04/06 00:48:46;;;;;;;13.60;9.70;;;;;;;-1.91;65.48;96889.00;109385;1270;90924;-81
2023/04/06 00:51:17;;;;;;;12.60;9.00;;;;;;;-1.94;65.37;96890.20;109537;1268;25479;-81
2023/04/06 00:53:48;;;;;;;14.70;9.80;;;;;;;-1.95;65.58;96891.59;109497;1264;22526;-80
2023/04/06 00:56:21;;;;;;;14.20;9.20;;;;;;;-1.99;65.50;96889.98;109489;1270;22542;-80
2023/04/06 00:58:52;;;;;;;14.00;9.30;;;;;;;-2.03;65.80;96889.97;109539;1270;22508;-80
2023/04/06 01:01:24;;;;;;;13.80;9.20;;;;;;;-2.04;65.92;96889.97;109542;1263;22522;-80
2023/04/06 01:03:55;;;;;;;15.10;9.20;;;;;;;-2.04;65.90;96887.56;109499;1264;22623;-81
2023/04/06 01:06:26;;;;;;;14.20;9.50;;;;;;;-2.07;65.74;96880.42;109483;1268;49292;-81
2023/04/06 01:08:57;;;;;;;12.30;8.60;;;;;;;-2.12;65.67;96879.50;109516;1270;23298;-80
2023/04/06 01:11:28;;;;;;;13.40;8.70;;;;;;;-2.17;65.84;96879.19;109497;1270;25290;-80
2023/04/06 01:13:59;;;;;;;12.70;9.00;;;;;;;-2.24;66.24;96881.90;109507;1267;22980;-80
2023/04/06 01:16:30;;;;;;;14.90;8.70;;;;;;;-2.32;66.39;96878.14;109410;1270;67283;-80
2023/04/06 01:19:01;;;;;;;12.90;8.40;;;;;;;-2.38;66.64;96880.66;109516;1270;22559;-80
2023/04/06 01:21:32;;;;;;;13.00;8.30;;;;;;;-2.43;66.81;96878.15;109519;1270;22547;-80
2023/04/06 01:24:04;;;;;;;13.90;8.20;;;;;;;-2.48;66.84;96876.69;109474;1270;22521;-80
2023/04/06 01:26:35;;;;;;;15.40;9.30;;;;;;;-2.60;66.99;96874.88;109428;1264;57823;-80
2023/04/06 01:29:06;;;;;;;12.20;8.90;;;;;;;-2.70;67.20;96873.16;109517;1270;22676;-80
2023/04/06 01:31:37;;;;;;;11.10;7.90;;;;;;;-2.78;67.32;96877.65;109522;1267;22565;-80
2023/04/06 01:34:08;;;;;;;11.00;7.40;;;;;;;-2.84;67.76;96876.75;109425;1270;23128;-80
2023/04/06 01:36:39;;;;;;;9.90;6.70;;;;;;;-2.88;68.29;96876.45;109402;1264;73645;-80
2023/04/06 01:39:10;;;;;;;13.10;8.00;;;;;;;-2.92;68.73;96873.98;109516;1270;22628;-80
2023/04/06 01:41:41;;;;;;;12.20;7.60;;;;;;;-2.98;68.78;96871.83;109512;1266;22536;-80
2023/04/06 01:44:12;;;;;;;11.90;7.90;;;;;;;-3.05;69.10;96870.92;109474;1269;22562;-80
2023/04/06 01:46:43;;;;;;;13.40;9.00;;;;;;;-3.10;69.07;96866.84;109448;1269;47859;-80
2023/04/06 01:49:14;;;;;;;12.40;7.40;;;;;;;-3.17;69.51;96867.25;109483;1260;22515;-80
2023/04/06 01:51:45;;;;;;;11.30;7.50;;;;;;;-3.24;69.78;96868.94;109485;1264;22551;-80
2023/04/06 01:54:16;;;;;;;12.90;7.40;;;;;;;-3.29;69.83;96873.64;109560;1269;22532;-80
2023/04/06 01:56:50;;;;;;;12.00;7.50;;;;;;;-3.31;69.95;96870.63;109429;1264;42380;-80
2023/04/06 01:59:23;;;;;;;13.10;9.00;;;;;;;-3.32;70.01;96868.18;109543;1264;23140;-80
2023/04/06 02:01:54;;;;;;;13.00;8.20;;;;;;;-3.32;70.17;96870.41;109469;1264;22541;-81
2023/04/06 02:04:25;;;;;;;12.70;8.20;;;;;;;-3.30;70.15;96868.80;109465;1270;22566;-80
2023/04/06 02:06:56;;;;;;;11.00;7.80;;;;;;;-3.33;70.14;96868.90;109496;1264;76542;-80
2023/04/06 02:09:27;;;;;;;11.60;7.50;;;;;;;-3.31;70.15;96861.10;109511;1264;22511;-80
2023/04/06 02:11:58;;;;;;;12.00;7.80;;;;;;;-3.34;70.20;96864.38;109525;1247;22505;-81
2023/04/06 02:14:30;;;;;;;11.30;7.30;;;;;;;-3.40;70.29;96864.07;109543;1263;22523;-80
2023/04/06 02:17:01;;;;;;;10.90;7.10;;;;;;;-3.45;70.27;96864.15;109414;1267;46446;-80
2023/04/06 02:19:32;;;;;;;10.80;6.70;;;;;;;-3.51;70.62;96858.70;109451;1270;25020;-80
2023/04/06 02:22:03;;;;;;;11.20;7.00;;;;;;;-3.58;70.80;96855.08;109462;1264;22545;-80
2023/04/06 02:24:35;;;;;;;14.20;9.00;;;;;;;-3.62;70.91;96857.07;109406;1264;22638;-80
2023/04/06 02:27:06;;;;;;;18.90;11.00;;;;;;;-3.60;70.97;96857.25;109402;1270;63142;-80
2023/04/06 02:29:37;;;;;;;18.10;10.50;;;;;;;-3.52;71.15;96856.25;109306;1270;22515;-80
2023/04/06 02:32:08;;;;;;;17.40;10.20;;;;;;;-3.49;71.09;96856.05;109395;1270;22653;-80
2023/04/06 02:34:39;;;;;;;13.60;8.80;;;;;;;-3.52;70.96;96858.48;109458;1270;22543;-80
2023/04/06 02:37:10;;;;;;;11.50;7.20;;;;;;;-3.60;70.99;96857.85;109304;1264;60146;-80
2023/04/06 02:39:41;;;;;;;10.20;7.70;;;;;;;-3.60;71.07;96862.20;109443;1264;23762;-80
2023/04/06 02:42:14;;;;;;;10.90;7.00;;;;;;;-3.56;71.32;96861.15;109563;1269;22637;-80
2023/04/06 02:44:46;;;;;;;11.00;6.50;;;;;;;-3.54;71.16;96862.71;109524;1270;22723;-80
2023/04/06 02:47:18;;;;;;;10.30;6.90;;;;;;;-3.59;71.13;96862.16;109448;1264;58376;-80
2023/04/06 02:49:49;;;;;;;8.90;6.40;;;;;;;-3.64;71.21;96868.05;109451;1266;22520;-80
2023/04/06 02:52:20;;;;;;;14.10;7.60;;;;;;;-3.65;71.55;96868.73;109445;1269;25298;-80
2023/04/06 02:54:51;;;;;;;13.30;8.20;;;;;;;-3.67;71.45;96871.27;109429;1270;23975;-80
2023/04/06 02:57:22;;;;;;;13.50;8.00;;;;;;;-3.72;71.59;96867.63;109395;1270;44426;-80
2023/04/06 02:59:53;;;;;;;10.90;7.00;;;;;;;-3.77;71.76;96868.21;109444;1264;22534;-80
2023/04/06 03:02:24;;;;;;;10.40;7.00;;;;;;;-3.81;71.98;96869.88;109479;1270;22616;-80
2023/04/06 03:04:55;;;;;;;13.60;8.10;;;;;;;-3.82;72.05;96867.41;109467;1270;23311;-81
2023/04/06 03:07:26;;;;;;;12.90;7.70;;;;;;;-3.82;72.36;96871.48;109439;1270;49230;-80
2023/04/06 03:09:57;;;;;;;13.80;8.40;;;;;;;-3.80;72.54;96873.35;109471;1270;23305;-80
2023/04/06 03:12:29;;;;;;;13.20;7.90;;;;;;;-3.74;72.54;96875.06;109477;1266;22553;-80
2023/04/06 03:15:00;;;;;;;11.80;7.40;;;;;;;-3.65;72.75;96874.33;109433;1270;22585;-80
2023/04/06 03:17:30;;;;;;;11.40;7.50;;;;;;;-3.67;72.78;96872.83;109412;1264;54179;-80
2023/04/06 03:20:01;;;;;;;12.70;7.70;;;;;;;-3.76;73.10;96868.16;109474;1270;22609;-80
2023/04/06 03:22:32;;;;;;;11.50;7.00;;;;;;;-3.84;73.47;96865.92;109501;1264;22567;-80
2023/04/06 03:25:03;;;;;;;15.40;9.70;;;;;;;-3.90;73.67;96865.42;109442;1263;22519;-80
2023/04/06 03:27:36;;;;;;;13.70;8.40;;;;;;;-3.92;73.83;96875.26;109452;1264;62089;-80
2023/04/06 03:30:10;;;;;;;14.40;9.70;;;;;;;-3.91;74.09;96871.40;109497;1270;22584;-80
2023/04/06 03:32:41;;;;;;;15.70;10.00;;;;;;;-3.90;74.16;96876.27;109522;1270;25328;-80
2023/04/06 03:35:13;;;;;;;18.10;9.80;;;;;;;-3.88;74.34;96872.06;109355;1267;22538;-80
2023/04/06 03:37:44;;;;;;;14.00;10.00;;;;;;;-3.83;74.43;96874.81;109413;1270;54396;-80
2023/04/06 03:40:15;;;;;;;16.70;10.40;;;;;;;-3.80;74.42;96871.36;109454;1270;22580;-80
2023/04/06 03:42:46;;;;;;;15.10;10.90;;;;;;;-3.78;74.62;96872.75;109453;1270;23681;-80
2023/04/06 03:45:17;;;;;;;16.20;10.20;;;;;;;-3.76;74.67;96872.30;109614;1269;25412;-80
2023/04/06 03:47:51;;;;;;;16.10;10.90;;;;;;;-3.71;74.61;96873.14;109391;1263;49475;-80
2023/04/06 03:50:22;;;;;;;16.90;10.70;;;;;;;-3.66;74.76;96873.38;109432;1270;22549;-80
2023/04/06 03:52:53;;;;;;;20.90;13.60;;;;;;;-3.63;74.72;96873.69;109485;1270;23232;-80
2023/04/06 03:55:24;;;;;;;16.70;11.60;;;;;;;-3.56;74.73;96877.61;109471;1270;22526;-80
2023/04/06 03:57:55;;;;;;;18.90;12.20;;;;;;;-3.49;74.74;96876.10;109380;1270;36471;-80
2023/04/06 04:00:28;;;;;;;16.40;11.20;;;;;;;-3.47;74.81;96875.16;109491;1270;22508;-80
2023/04/06 04:02:59;;;;;;;18.10;10.80;;;;;;;-3.41;75.03;96877.14;109375;1264;22984;-80
2023/04/06 04:05:30;;;;;;;16.20;11.60;;;;;;;-3.39;74.79;96873.58;109379;1270;22525;-80
2023/04/06 04:08:01;;;;;;;17.10;10.60;;;;;;;-3.34;74.80;96874.63;109319;1268;61927;-80
2023/04/06 04:10:32;;;;;;;15.80;10.60;;;;;;;-3.30;74.84;96870.64;109474;1254;22622;-80
2023/04/06 04:13:03;;;;;;;16.80;11.20;;;;;;;-3.27;74.92;96875.16;109446;1270;23210;-80
2023/04/06 04:15:34;;;;;;;18.50;11.10;;;;;;;-3.24;74.85;96876.55;109468;1270;22543;-80
2023/04/06 04:18:06;;;;;;;17.30;11.40;;;;;;;-3.18;74.97;96870.99;109436;1265;43439;-80
2023/04/06 04:20:37;;;;;;;18.20;12.30;;;;;;;-3.11;74.97;96867.79;109452;1270;22520;-80
2023/04/06 04:23:08;;;;;;;19.30;10.80;;;;;;;-3.05;74.99;96868.64;109407;1264;22513;-80
2023/04/06 04:25:39;;;;;;;16.50;12.10;;;;;;;-3.06;75.05;96866.16;109534;1269;22539;-80
2023/04/06 04:28:10;;;;;;;19.30;12.40;;;;;;;-3.03;75.09;96866.53;109400;1267;78835;-80
2023/04/06 04:30:41;;;;;;;16.40;11.70;;;;;;;-3.01;75.09;96869.84;109489;1270;22620;-80
2023/04/06 04:33:12;;;;;;;16.30;11.90;;;;;;;-2.98;74.93;96866.61;109496;1270;23257;-80
2023/04/06 04:35:43;;;;;;;16.80;12.30;;;;;;;-2.95;74.96;96866.19;109405;1270;22576;-80
2023/04/06 04:38:14;;;;;;;15.80;11.30;;;;;;;-2.88;75.18;96865.95;109447;1270;50539;-80
2023/04/06 04:40:45;;;;;;;17.40;11.80;;;;;;;-2.81;75.33;96865.92;109467;1267;24255;-80
2023/04/06 04:43:17;;;;;;;18.40;12.00;;;;;;;-2.74;75.26;96864.11;109416;1270;22558;-80
2023/04/06 04:45:48;;;;;;;18.80;12.00;;;;;;;-2.69;75.09;96866.65;109613;1269;22525;-80
2023/04/06 04:48:19;;;;;;;16.20;11.30;;;;;;;-2.66;75.19;96867.77;109262;1267;39316;-80
2023/04/06 04:50:50;;;;;;;16.70;10.60;;;;;;;-2.64;75.33;96864.67;109472;1270;26149;-80
2023/04/06 04:53:22;;;;;;;16.70;10.70;;;;;;;-2.64;74.74;96862.40;109362;1270;23347;-80
2023/04/06 04:55:53;;;;;;;17.10;9.40;;;;;;;-2.62;74.46;96858.77;109449;1269;22988;-80
2023/04/06 04:58:24;;;;;;;17.40;9.70;;;;;;;-2.60;74.25;96857.75;109497;1269;59221;-80
2023/04/06 05:00:55;;;;;;;14.70;9.20;;;;;;;-2.55;73.63;96855.41;109418;1270;23223;-80
2023/04/06 05:03:27;;;;;;;17.20;9.90;;;;;;;-2.49;73.55;96852.76;109378;1270;24405;-82
2023/04/06 05:06:01;;;;;;;11.80;7.90;;;;;;;-2.42;73.10;96857.77;109399;1266;25249;-81
2023/04/06 05:08:32;;;;;;;13.00;8.50;;;;;;;-2.38;72.48;96851.79;109486;1269;59779;-82
2023/04/06 05:11:04;;;;;;;13.20;8.60;;;;;;;-2.37;72.39;96849.84;109453;1269;24439;-82
2023/04/06 05:13:35;;;;;;;14.40;9.60;;;;;;;-2.37;72.41;96848.36;109442;1270;22508;-80
2023/04/06 05:16:07;;;;;;;17.50;9.50;;;;;;;-2.36;72.44;96850.56;109553;1262;22560;-81
2023/04/06 05:18:38;;;;;;;16.40;10.10;;;;;;;-2.34;72.17;96848.83;109455;1254;57933;-81
2023/04/06 05:21:09;;;;;;;17.00;9.00;;;;;;;-2.32;72.04;96846.14;109572;1264;24484;-81
2023/04/06 05:23:40;;;;;;;15.10;9.40;;;;;;;-2.33;72.00;96845.90;109362;1264;22620;-81
2023/04/06 05:26:12;;;;;;;14.50;9.70;;;;;;;-2.32;71.72;96849.77;109385;1270;22641;-81
2023/04/06 05:28:44;;;;;;;14.50;9.90;;;;;;;-2.29;71.84;96852.58;109372;1267;38858;-81
2023/04/06 05:31:18;;;;;;;13.90;8.60;;;;;;;-2.24;71.84;96854.11;109426;1270;22529;-82
2023/04/06 05:33:49;;;;;;;11.60;8.30;;;;;;;-2.18;71.73;96857.92;109396;1267;25346;-81
2023/04/06 05:36:20;;;;;;;13.70;8.10;;;;;;;-2.13;71.47;96854.96;109311;1269;22522;-81
2023/04/06 05:38:52;;;;;;;11.00;7.20;;;;;;;-2.05;71.30;96856.52;109356;1270;87057;-81
2023/04/06 05:41:24;;;;;;;12.80;8.50;;;;;;;-2.03;71.11;96856.77;109400;1270;24429;-81
2023/04/06 05:43:55;;;;;;;14.30;9.60;;;;;;;-2.03;71.01;96855.17;109394;1269;25290;-81
2023/04/06 05:46:27;;;;;;;13.70;9.30;;;;;;;-2.03;70.84;96853.38;109545;1269;22521;-81
2023/04/06 05:48:58;;;;;;;15.70;10.10;;;;;;;-2.04;70.85;96853.96;109437;1264;22516;-81
2023/04/06 05:51:29;;;;;;;14.40;9.70;;;;;;;-2.03;70.90;96855.29;109415;1269;25467;-81
2023/04/06 05:54:01;;;;;;;15.50;9.20;;;;;;;-1.99;70.75;96849.79;109485;1270;22548;-82
2023/04/06 05:56:32;;;;;;;14.60;9.50;;;;;;;-2.00;70.67;96854.18;109392;1270;54960;-82
2023/04/06 05:59:04;;;;;;;14.70;10.00;;;;;;;-1.97;70.33;96853.88;109282;1271;22514;-81
2023/04/06 06:01:35;;;;;;;15.20;9.70;;;;;;;-1.97;70.00;96853.48;109243;1264;22523;-82
2023/04/06 06:04:07;;;;;;;15.40;10.10;;;;;;;-1.92;70.03;96856.74;109322;1271;22561;-82
2023/04/06 06:06:38;;;;;;;16.50;10.90;;;;;;;-1.88;70.18;96853.36;109238;1264;44870;-82
2023/04/06 06:09:10;;;;;;;14.40;9.80;;;;;;;-1.83;70.07;96854.27;109409;1269;22526;-82
2023/04/06 06:11:41;;;;;;;11.80;8.90;;;;;;;-1.71;70.27;96850.46;109430;1269;22512;-81
2023/04/06 06:14:13;;;;;;;12.80;8.10;;;;;;;-1.62;70.03;96849.18;109564;1264;23292;-82
2023/04/06 06:16:44;;;;;;;12.90;9.40;;;;;;;-1.58;69.46;96849.79;109335;1263;34724;-83
2023/04/06 06:19:15;;;;;;;15.00;9.60;;;;;;;-1.59;69.10;96850.38;109297;1270;22505;-81
2023/04/06 06:21:46;;;;;;;15.40;10.60;;;;;;;-1.57;69.18;96845.70;109295;1270;26456;-82
2023/04/06 06:24:17;;;;;;;13.60;8.60;;;;;;;-1.50;69.20;96850.66;109284;1271;22594;-82
2023/04/06 06:26:48;;;;;;;14.40;8.40;;;;;;;-1.49;68.70;96851.59;109191;1265;41092;-81
2023/04/06 06:29:20;;;;;;;18.90;10.70;;;;;;;-1.59;68.61;96849.54;109342;1268;22519;-81
2023/04/06 06:31:51;;;;;;;13.90;9.10;;;;;;;-1.66;68.36;96845.82;109580;1270;22571;-82
2023/04/06 06:34:22;;;;;;;15.10;9.60;;;;;;;-1.68;68.43;96847.28;109562;1270;22696;-82
2023/04/06 06:36:55;;;;;;;15.20;9.80;;;;;;;-1.63;68.46;96850.98;109347;1268;54275;-82
2023/04/06 06:39:26;;;;;;;13.60;9.00;;;;;;;-1.60;68.33;96847.70;109567;1270;23168;-82
2023/04/06 06:42:00;;;;;;;15.00;9.50;;;;;;;-1.55;68.36;96852.71;109322;1271;25362;-83
2023/04/06 06:44:31;;;;;;;17.60;10.80;;;;;;;-1.58;68.61;96853.27;109251;1271;22588;-82
2023/04/06 06:47:03;;;;;;;19.80;12.20;;;;;;;-1.58;68.52;96848.06;109246;1268;62044;-82
2023/04/06 06:49:34;;;;;;;20.50;12.20;;;;;;;-1.56;68.69;96846.52;109380;1265;22528;-82
2023/04/06 06:52:05;;;;;;;22.60;13.60;;;;;;;-1.52;69.15;96843.10;109469;1264;23538;-82
2023/04/06 06:54:36;;;;;;;18.30;11.30;;;;;;;-1.45;69.25;96853.02;109420;1270;22512;-82
2023/04/06 06:57:08;;;;;;;15.50;10.60;;;;;;;-1.39;69.12;96846.89;109356;1270;62928;-82
2023/04/06 06:59:39;;;;;;;14.90;10.30;;;;;;;-1.27;68.86;96846.98;109299;1270;22526;-82
2023/04/06 07:02:10;;;;;;;17.30;10.70;;;;;;;-1.26;68.25;96849.52;109250;1261;23077;-82
2023/04/06 07:04:42;;;;;;;19.60;11.70;;;;;;;-1.31;68.14;96849.30;109297;1271;22549;-82
2023/04/06 07:07:13;;;;;;;18.60;11.00;;;;;;;-1.36;68.58;96850.21;109369;1267;48575;-81
2023/04/06 07:09:44;;;;;;;16.20;11.70;;;;;;;-1.32;68.43;96849.21;109403;1265;22559;-82
2023/04/06 07:12:18;;;;;;;19.30;12.60;;;;;;;-1.29;68.42;96854.98;109179;1271;22721;-82
2023/04/06 07:14:49;;;;;;;21.40;12.40;;;;;;;-1.20;68.71;96848.56;109261;1264;22561;-81
2023/04/06 07:17:21;;;;;;;16.40;10.10;;;;;;;-1.16;68.40;96847.88;109226;1270;31431;-82
2023/04/06 07:19:53;;;;;;;15.90;11.50;;;;;;;-1.12;68.53;96854.46;109494;1269;22560;-81
2023/04/06 07:22:24;;;;;;;14.10;10.00;;;;;;;-1.08;68.07;96853.19;109516;1264;22551;-82
2023/04/06 07:24:56;;;;;;;14.50;9.30;;;;;;;-1.06;67.94;96852.63;109443;1270;22524;-81
2023/04/06 07:27:27;;;;;;;15.60;9.60;;;;;;;-0.98;67.85;96855.55;109388;1270;78676;-81
2023/04/06 07:29:59;;;;;;;12.70;8.50;;;;;;;-0.91;68.02;96854.59;109349;1270;25393;-81
2023/04/06 07:32:30;;;;;;;11.90;8.20;;;;;;;-0.87;67.49;96860.04;109424;1270;22512;-82
2023/04/06 07:35:01;;;;;;;13.30;8.90;;;;;;;-0.82;67.15;96859.69;109445;1270;22516;-82
2023/04/06 07:37:33;;;;;;;15.70;9.80;;;;;;;-0.86;67.42;96858.31;109407;1262;41806;-81
2023/04/06 07:40:05;;;;;;;15.50;9.90;;;;;;;-0.91;66.78;96854.48;109405;1259;22535;-83
2023/04/06 07:42:36;;;;;;;15.90;9.70;;;;;;;-0.98;67.20;96848.95;109454;1270;22518;-81
2023/04/06 07:45:09;;;;;;;15.40;11.30;;;;;;;-1.03;67.05;96845.34;109433;1270;22526;-82
2023/04/06 07:47:40;;;;;;;14.10;9.70;;;;;;;-1.05;67.19;96844.13;109397;1267;37469;-82
2023/04/06 07:50:13;;;;;;;15.00;9.80;;;;;;;-1.05;67.17;96844.85;109414;1270;22517;-82
2023/04/06 07:52:44;;;;;;;17.70;10.50;;;;;;;-1.02;67.41;96845.17;109422;1262;23388;-81
2023/04/06 07:55:15;;;;;;;17.90;10.10;;;;;;;-0.93;67.55;96844.34;109456;1270;22658;-81
2023/04/06 07:57:46;;;;;;;15.20;10.40;;;;;;;-0.82;67.42;96839.55;109398;1270;32270;-81
2023/04/06 08:00:18;;;;;;;14.40;9.80;;;;;;;-0.68;67.38;96839.22;109459;1263;23110;-81
2023/04/06 08:02:50;;;;;;;16.60;10.70;;;;;;;-0.56;67.34;96834.67;109394;1258;22561;-81
2023/04/06 08:05:21;;;;;;;16.40;11.80;;;;;;;-0.51;67.55;96835.20;109450;1270;22529;-83
2023/04/06 08:07:52;;;;;;;18.20;10.80;;;;;;;-0.42;67.50;96832.95;109458;1269;56748;-81
2023/04/06 08:10:24;;;;;;;15.20;9.90;;;;;;;-0.41;66.67;96831.61;109564;1269;22536;-80
2023/04/06 08:12:55;;;;;;;15.40;10.50;;;;;;;-0.46;66.81;96829.13;109454;1267;22520;-81
2023/04/06 08:15:26;;;;;;;15.20;10.50;;;;;;;-0.34;66.85;96832.85;109409;1270;22511;-80
2023/04/06 08:17:58;;;;;;;14.50;9.40;;;;;;;-0.17;67.33;96826.44;109418;1269;49831;-83
2023/04/06 08:20:33;;;;;;;16.20;9.20;;;;;;;-0.02;66.31;96825.15;109484;1269;22521;-83
2023/04/06 08:23:06;;;;;;;12.90;9.10;;;;;;;0.16;66.55;96823.80;109465;1270;25288;-83
2023/04/06 08:25:39;;;;;;;12.70;8.60;;;;;;;0.37;66.78;96829.36;109531;1269;22681;-90
2023/04/06 08:28:11;;;;;;;11.60;8.10;;;;;;;0.57;66.53;96827.17;109465;1264;58528;-89
2023/04/06 08:30:44;;;;;;;15.00;9.30;;;;;;;0.59;65.27;96826.60;109515;1269;22508;-90
2023/04/06 08:33:15;;;;;;;12.30;8.50;;;;;;;0.57;65.36;96824.48;109434;1262;194265;-90
2023/04/06 08:35:47;;;;;;;11.20;7.70;;;;;;;0.55;65.20;96824.41;109495;1270;23287;-89
2023/04/06 08:38:18;;;;;;;10.90;8.40;;;;;;;0.55;64.91;96826.69;109484;1270;66177;-87
2023/04/06 08:40:51;;;;;;;10.70;7.90;;;;;;;0.64;65.28;96827.54;109431;1270;22528;-88
2023/04/06 08:43:26;;;;;;;11.60;7.90;;;;;;;0.67;64.45;96824.48;109434;1270;22539;-87
2023/04/06 08:45:58;;;;;;;12.90;7.60;;;;;;;0.39;64.11;96827.55;109417;1270;22510;-88
2023/04/06 08:48:30;;;;;;;10.90;7.60;;;;;;;0.34;64.50;96822.60;109465;1268;36680;-87
2023/04/06 08:51:02;;;;;;;9.50;6.90;;;;;;;0.29;64.45;96820.77;109351;1270;22624;-87
2023/04/06 08:53:33;;;;;;;10.20;6.70;;;;;;;0.21;64.14;96814.83;109505;1270;23121;-87
2023/04/06 08:56:10;;;;;;;8.90;6.20;;;;;;;0.04;63.91;96815.30;109438;1270;25288;-87
2023/04/06 08:58:42;;;;;;;9.60;6.90;;;;;;;-0.16;64.41;96813.91;109401;1262;69024;-87
2023/04/06 09:01:17;;;;;;;10.30;7.20;;;;;;;-0.15;64.61;96812.27;109519;1265;25408;-88
2023/04/06 09:03:50;;;;;;;8.80;6.20;;;;;;;-0.09;64.30;96815.15;109493;1267;22685;-90
2023/04/06 09:06:22;;;;;;;8.90;6.90;;;;;;;-0.15;63.97;96806.91;109474;1264;22540;-88
2023/04/06 09:08:53;;;;;;;12.70;6.60;;;;;;;-0.23;63.58;96806.23;109460;1267;46356;-88
2023/04/06 09:11:25;;;;;;;11.30;6.90;;;;;;;-0.37;64.51;96809.70;109459;1270;22515;-88
2023/04/06 09:13:59;;;;;;;9.90;6.60;;;;;;;-0.31;64.55;96809.39;109474;1270;25606;-88
2023/04/06 09:16:39;;;;;;;10.20;6.70;;;;;;;-0.14;65.05;96804.74;109358;1270;75816;-88
2023/04/06 09:19:11;;;;;;;12.20;7.30;;;;;;;-0.10;64.58;96802.00;109443;1270;22658;-89
2023/04/06 09:21:42;;;;;;;8.80;5.90;;;;;;;-0.10;64.65;96802.61;109566;1269;22591;-88
2023/04/06 09:24:13;;;;;;;9.60;7.10;;;;;;;0.01;64.79;96802.61;109480;1270;22560;-87
2023/04/06 09:26:51;;;;;;;11.60;6.60;;;;;;;0.12;64.97;96800.27;109472;1270;51864;-87
2023/04/06 09:29:28;;;;;;;10.70;7.40;;;;;;;0.18;65.84;96800.65;109523;1270;22662;-87
2023/04/06 09:32:07;;;;;;;10.00;6.70;;;;;;;0.15;68.26;96793.60;109452;1265;22561;-88
2023/04/06 09:34:39;;;;;;;11.20;7.60;;;;;;;0.13;66.78;96792.09;109465;1270;22548;-89
2023/04/06 09:37:18;;;;;;;11.50;7.60;;;;;;;0.01;66.71;96791.74;109405;1270;62365;-88
2023/04/06 09:39:52;;;;;;;10.00;6.70;;;;;;;0.08;67.43;96792.52;109288;1263;22481;-88
2023/04/06 09:42:29;;;;;;;11.30;8.20;;;;;;;0.14;66.92;96789.40;109298;1270;22525;-88
2023/04/06 09:45:00;;;;;;;10.60;7.60;;;;;;;0.16;66.79;96792.16;109355;1271;25422;-87
2023/04/06 09:47:33;;;;;;;10.50;7.70;;;;;;;0.25;67.65;96792.98;109229;1271;51159;-88
2023/04/06 09:50:06;;;;;;;10.40;7.60;;;;;;;0.34;67.71;96791.23;109236;1270;22641;-88
2023/04/06 09:52:42;;;;;;;9.90;7.40;;;;;;;0.29;67.47;96792.38;109345;1265;22539;-88
2023/04/06 09:55:18;;;;;;;8.90;7.00;;;;;;;0.30;67.96;96793.17;109404;1264;22511;-88
2023/04/06 09:57:54;;;;;;;11.40;7.50;;;;;;;0.34;67.89;96790.44;109393;1264;50806;-88
2023/04/06 10:00:29;;;;;;;8.80;7.10;;;;;;;0.22;67.98;96791.40;109473;1270;22532;-88
2023/04/06 10:03:05;;;;;;;11.50;8.80;;;;;;;0.18;68.34;96792.82;109381;1265;22568;-88
2023/04/06 10:05:48;;;;;;;11.90;9.20;;;;;;;-0.12;68.72;96799.25;109476;1269;23277;-89
2023/04/06 10:08:23;;;;;;;15.20;9.50;;;;;;;-0.26;69.13;96801.34;109287;1264;68321;-88
2023/04/06 10:10:55;;;;;;;12.60;9.10;;;;;;;-0.13;69.62;96802.17;109484;1270;22902;-88
2023/04/06 10:13:28;;;;;;;12.50;9.40;;;;;;;-0.05;69.99;96795.33;109527;1261;24281;-88
2023/04/06 10:16:01;;;;;;;14.10;9.20;;;;;;;-0.07;70.30;96797.38;109449;1266;22525;-87
2023/04/06 10:18:33;;;;;;;13.10;7.80;;;;;;;-0.14;70.42;96791.67;109520;1264;38940;-89
2023/04/06 10:21:10;;;;;;;12.50;9.30;;;;;;;-0.34;70.66;96797.67;109502;1265;22566;-89
2023/04/06 10:23:48;;;;;;;11.00;9.00;;;;;;;-0.40;71.12;96785.83;109508;1270;25409;-89
2023/04/06 10:26:25;;;;;;;11.80;8.50;;;;;;;-0.54;70.85;96780.36;109520;1262;22556;-88
2023/04/06 10:29:02;;;;;;;13.40;9.50;;;;;;;-0.57;71.87;96781.96;109178;1254;22517;-88
2023/04/06 10:31:40;;;;;;;14.90;9.10;;;;;;;-0.65;72.24;96781.67;109218;1270;23230;-88
2023/04/06 10:34:12;;;;;;;11.50;8.50;;;;;;;-0.73;72.47;96783.90;109312;1271;22544;-88
2023/04/06 10:36:43;;;;;;;16.20;10.90;;;;;;;-0.71;72.80;96779.98;109184;1263;81750;-89
2023/04/06 10:39:14;;;;;;;13.30;9.40;;;;;;;-0.71;72.77;96776.95;109535;1270;22511;-89
2023/04/06 10:41:48;;;;;;;12.70;8.60;;;;;;;-0.60;73.16;96775.77;109537;1266;24120;-87
2023/04/06 10:44:25;;;;;;;15.40;9.90;;;;;;;-0.50;73.13;96777.35;109593;1270;24267;-87
2023/04/06 10:47:00;;;;;;;13.20;8.90;;;;;;;-0.38;73.41;96771.59;109490;1268;48202;-88
2023/04/06 10:49:31;;;;;;;11.70;10.10;;;;;;;-0.50;73.24;96768.57;109601;1269;23146;-88
2023/04/06 10:52:03;;;;;;;11.90;9.20;;;;;;;-0.54;73.52;96764.11;109496;1270;27250;-88
2023/04/06 10:54:34;;;;;;;10.70;8.10;;;;;;;-0.44;73.74;96763.90;109491;1269;22544;-87
2023/04/06 10:57:06;;;;;;;14.00;9.60;;;;;;;-0.42;73.86;96765.95;109459;1262;61713;-87
2023/04/06 10:59:37;;;;;;;13.60;10.10;;;;;;;-0.53;74.12;96759.42;109525;1265;22543;-87
2023/04/06 11:02:09;;;;;;;11.40;9.10;;;;;;;-0.56;74.47;96759.30;109490;1270;22516;-88
2023/04/06 11:04:42;;;;;;;12.80;8.90;;;;;;;-0.54;74.44;96754.57;109491;1270;24248;-87
2023/04/06 11:07:26;;;;;;;10.60;6.90;;;;;;;-0.56;74.31;96754.56;109441;1270;78813;-87
2023/04/06 11:10:02;;;;;;;12.00;8.10;;;;;;;-0.61;74.56;96758.58;109438;1270;22539;-87
2023/04/06 11:12:34;;;;;;;14.30;9.70;;;;;;;-0.75;74.89;96755.77;109589;1265;22529;-88
2023/04/06 11:15:07;;;;;;;12.60;10.00;;;;;;;-0.77;75.82;96753.69;109563;1264;22569;-88
2023/04/06 11:17:39;;;;;;;14.10;8.90;;;;;;;-0.82;76.02;96755.30;109811;1267;63415;-89
2023/04/06 11:20:13;;;;;;;14.10;9.40;;;;;;;-0.88;76.55;96755.46;109553;1267;23089;-87
2023/04/06 11:22:53;;;;;;;12.50;8.80;;;;;;;-0.96;76.91;96750.80;109350;1265;22532;-89
2023/04/06 11:25:22;;;;;;;;;;;;;;;-1.01;77.44;96750.15;109561;1270;22499;-87
2023/04/06 11:27:53;;;;;;;13.80;8.70;;;;;;;-1.06;77.89;96750.84;109472;1262;42672;-86
2023/04/06 11:30:25;;;;;;;13.60;9.70;;;;;;;-1.09;78.09;96749.69;109539;1270;22514;-87
2023/04/06 11:33:03;;;;;;;13.10;9.90;;;;;;;-1.13;78.22;96748.76;109513;1270;22568;-87
2023/04/06 11:35:36;;;;;;;10.80;7.30;;;;;;;-1.01;77.96;96750.47;109516;1270;22586;-90
2023/04/06 11:38:07;;;;;;;13.90;10.10;;;;;;;-0.90;78.25;96746.41;109455;1270;45839;-90